sensor_id;sensor_type;location;lat;lon;timestamp;P1;durP1;ratioP1;P2;durP2;ratioP2
21505;SDS011;10914;48.886;9.394;2023-03-09T00:01:53;29.80;;;27.92;;
21505;SDS011;10914;48.886;9.394;2023-03-09T00:04:19;32.10;;;30.50;;
21505;SDS011;10914;48.886;9.394;2023-03-09T00:06:44;28.77;;;27.02;;
21505;SDS011;10914;48.886;9.394;2023-03-09T00:09:10;27.48;;;25.98;;
21505;SDS011;10914;48.886;9.394;2023-03-09T00:11:35;29.10;;;27.60;;
21505;SDS011;10914;48.886;9.394;2023-03-09T00:14:00;27.38;;;25.88;;
21505;SDS011;10914;48.886;9.394;2023-03-09T00:16:27;26.75;;;25.30;;
21505;SDS011;10914;48.886;9.394;2023-03-09T00:18:53;27.73;;;26.33;;
21505;SDS011;10914;48.886;9.394;2023-03-09T00:21:21;29.60;;;28.10;;
21505;SDS011;10914;48.886;9.394;2023-03-09T00:24:00;30.23;;;28.42;;
21505;SDS011;10914;48.886;9.394;2023-03-09T00:26:25;32.20;;;30.13;;
21505;SDS011;10914;48.886;9.394;2023-03-09T00:28:50;30.48;;;28.60;;
21505;SDS011;10914;48.886;9.394;2023-03-09T00:31:15;33.20;;;31.33;;
21505;SDS011;10914;48.886;9.394;2023-03-09T00:33:40;32.30;;;30.52;;
21505;SDS011;10914;48.886;9.394;2023-03-09T00:36:06;30.13;;;28.43;;
21505;SDS011;10914;48.886;9.394;2023-03-09T00:38:31;30.35;;;28.45;;
21505;SDS011;10914;48.886;9.394;2023-03-09T00:40:56;33.20;;;31.45;;
21505;SDS011;10914;48.886;9.394;2023-03-09T00:43:21;31.97;;;30.33;;
21505;SDS011;10914;48.886;9.394;2023-03-09T00:45:46;25.58;;;24.17;;
21505;SDS011;10914;48.886;9.394;2023-03-09T00:48:12;32.63;;;30.93;;
21505;SDS011;10914;48.886;9.394;2023-03-09T00:50:37;34.95;;;32.95;;
21505;SDS011;10914;48.886;9.394;2023-03-09T00:53:02;34.70;;;32.83;;
21505;SDS011;10914;48.886;9.394;2023-03-09T00:55:28;34.80;;;33.10;;
21505;SDS011;10914;48.886;9.394;2023-03-09T00:57:53;33.33;;;31.38;;
21505;SDS011;10914;48.886;9.394;2023-03-09T01:00:19;31.75;;;30.02;;
21505;SDS011;10914;48.886;9.394;2023-03-09T01:02:44;33.65;;;31.90;;
21505;SDS011;10914;48.886;9.394;2023-03-09T01:05:09;34.53;;;32.73;;
21505;SDS011;10914;48.886;9.394;2023-03-09T01:07:34;32.33;;;30.50;;
21505;SDS011;10914;48.886;9.394;2023-03-09T01:10:00;29.63;;;28.13;;
21505;SDS011;10914;48.886;9.394;2023-03-09T01:12:25;34.35;;;32.38;;
21505;SDS011;10914;48.886;9.394;2023-03-09T01:14:54;30.37;;;28.67;;
21505;SDS011;10914;48.886;9.394;2023-03-09T01:17:19;36.47;;;34.58;;
21505;SDS011;10914;48.886;9.394;2023-03-09T01:19:44;33.30;;;31.55;;
21505;SDS011;10914;48.886;9.394;2023-03-09T01:22:09;30.47;;;28.97;;
21505;SDS011;10914;48.886;9.394;2023-03-09T01:24:34;29.27;;;27.77;;
21505;SDS011;10914;48.886;9.394;2023-03-09T01:27:00;29.43;;;28.03;;
21505;SDS011;10914;48.886;9.394;2023-03-09T01:29:25;30.00;;;28.55;;
21505;SDS011;10914;48.886;9.394;2023-03-09T01:31:50;35.40;;;33.73;;
21505;SDS011;10914;48.886;9.394;2023-03-09T01:34:15;30.93;;;29.53;;
21505;SDS011;10914;48.886;9.394;2023-03-09T01:36:40;30.93;;;29.50;;
21505;SDS011;10914;48.886;9.394;2023-03-09T01:39:06;24.92;;;23.80;;
21505;SDS011;10914;48.886;9.394;2023-03-09T01:41:31;26.75;;;25.45;;
21505;SDS011;10914;48.886;9.394;2023-03-09T01:43:56;25.75;;;24.60;;
21505;SDS011;10914;48.886;9.394;2023-03-09T01:48:51;23.58;;;22.48;;
21505;SDS011;10914;48.886;9.394;2023-03-09T01:51:20;23.55;;;22.45;;
21505;SDS011;10914;48.886;9.394;2023-03-09T01:53:46;23.00;;;22.00;;
21505;SDS011;10914;48.886;9.394;2023-03-09T01:56:12;23.58;;;22.48;;
21505;SDS011;10914;48.886;9.394;2023-03-09T01:58:38;23.30;;;22.20;;
21505;SDS011;10914;48.886;9.394;2023-03-09T02:01:04;24.38;;;23.27;;
21505;SDS011;10914;48.886;9.394;2023-03-09T02:03:31;22.63;;;21.50;;
21505;SDS011;10914;48.886;9.394;2023-03-09T02:05:59;22.45;;;21.35;;
21505;SDS011;10914;48.886;9.394;2023-03-09T02:08:27;22.67;;;21.67;;
21505;SDS011;10914;48.886;9.394;2023-03-09T02:10:55;22.50;;;21.50;;
21505;SDS011;10914;48.886;9.394;2023-03-09T02:13:21;24.00;;;22.90;;
21505;SDS011;10914;48.886;9.394;2023-03-09T02:15:49;25.10;;;23.70;;
21505;SDS011;10914;48.886;9.394;2023-03-09T02:18:14;24.48;;;23.38;;
21505;SDS011;10914;48.886;9.394;2023-03-09T02:23:13;22.67;;;21.65;;
21505;SDS011;10914;48.886;9.394;2023-03-09T02:25:47;23.27;;;22.17;;
21505;SDS011;10914;48.886;9.394;2023-03-09T02:28:13;22.27;;;21.27;;
21505;SDS011;10914;48.886;9.394;2023-03-09T02:30:39;23.07;;;22.07;;
21505;SDS011;10914;48.886;9.394;2023-03-09T02:33:06;22.55;;;21.45;;
21505;SDS011;10914;48.886;9.394;2023-03-09T02:35:32;21.70;;;20.73;;
21505;SDS011;10914;48.886;9.394;2023-03-09T02:37:57;22.23;;;21.02;;
21505;SDS011;10914;48.886;9.394;2023-03-09T02:40:32;22.65;;;21.63;;
21505;SDS011;10914;48.886;9.394;2023-03-09T02:42:58;22.30;;;21.30;;
21505;SDS011;10914;48.886;9.394;2023-03-09T02:45:25;23.27;;;22.17;;
21505;SDS011;10914;48.886;9.394;2023-03-09T02:47:50;23.45;;;22.35;;
21505;SDS011;10914;48.886;9.394;2023-03-09T02:50:17;23.38;;;22.38;;
21505;SDS011;10914;48.886;9.394;2023-03-09T02:52:42;23.77;;;22.57;;
21505;SDS011;10914;48.886;9.394;2023-03-09T02:55:08;23.00;;;22.00;;
21505;SDS011;10914;48.886;9.394;2023-03-09T02:57:33;22.73;;;21.73;;
21505;SDS011;10914;48.886;9.394;2023-03-09T02:59:59;22.60;;;21.60;;
21505;SDS011;10914;48.886;9.394;2023-03-09T03:02:24;22.40;;;21.40;;
21505;SDS011;10914;48.886;9.394;2023-03-09T03:04:49;22.73;;;21.63;;
21505;SDS011;10914;48.886;9.394;2023-03-09T03:07:14;23.00;;;22.00;;
21505;SDS011;10914;48.886;9.394;2023-03-09T03:09:39;23.15;;;22.05;;
21505;SDS011;10914;48.886;9.394;2023-03-09T03:12:05;22.92;;;21.92;;
21505;SDS011;10914;48.886;9.394;2023-03-09T03:14:30;22.27;;;21.27;;
21505;SDS011;10914;48.886;9.394;2023-03-09T03:16:56;23.38;;;22.38;;
21505;SDS011;10914;48.886;9.394;2023-03-09T03:19:21;22.42;;;21.42;;
21505;SDS011;10914;48.886;9.394;2023-03-09T03:21:46;22.15;;;21.15;;
21505;SDS011;10914;48.886;9.394;2023-03-09T03:24:13;22.35;;;21.35;;
21505;SDS011;10914;48.886;9.394;2023-03-09T03:26:38;21.30;;;20.30;;
21505;SDS011;10914;48.886;9.394;2023-03-09T03:29:03;22.30;;;21.10;;
21505;SDS011;10914;48.886;9.394;2023-03-09T03:31:28;28.10;;;26.73;;
21505;SDS011;10914;48.886;9.394;2023-03-09T03:33:53;30.23;;;28.83;;
21505;SDS011;10914;48.886;9.394;2023-03-09T03:36:18;25.85;;;24.55;;
21505;SDS011;10914;48.886;9.394;2023-03-09T03:38:44;38.70;;;36.85;;
21505;SDS011;10914;48.886;9.394;2023-03-09T03:41:09;24.40;;;23.25;;
21505;SDS011;10914;48.886;9.394;2023-03-09T03:43:34;27.52;;;26.13;;
21505;SDS011;10914;48.886;9.394;2023-03-09T03:45:59;26.73;;;25.38;;
21505;SDS011;10914;48.886;9.394;2023-03-09T03:48:24;23.87;;;22.77;;
21505;SDS011;10914;48.886;9.394;2023-03-09T03:50:50;23.10;;;22.00;;
21505;SDS011;10914;48.886;9.394;2023-03-09T03:53:15;25.52;;;24.33;;
21505;SDS011;10914;48.886;9.394;2023-03-09T03:55:40;23.33;;;22.27;;
21505;SDS011;10914;48.886;9.394;2023-03-09T03:58:05;24.83;;;23.60;;
21505;SDS011;10914;48.886;9.394;2023-03-09T04:00:30;28.33;;;27.03;;
21505;SDS011;10914;48.886;9.394;2023-03-09T04:02:55;26.37;;;25.07;;
21505;SDS011;10914;48.886;9.394;2023-03-09T04:05:21;23.10;;;22.00;;
21505;SDS011;10914;48.886;9.394;2023-03-09T04:07:46;25.73;;;24.33;;
21505;SDS011;10914;48.886;9.394;2023-03-09T04:10:11;25.02;;;23.83;;
21505;SDS011;10914;48.886;9.394;2023-03-09T04:12:37;24.25;;;23.10;;
21505;SDS011;10914;48.886;9.394;2023-03-09T04:15:02;23.75;;;22.50;;
21505;SDS011;10914;48.886;9.394;2023-03-09T04:17:27;23.17;;;21.88;;
21505;SDS011;10914;48.886;9.394;2023-03-09T04:19:53;23.35;;;22.25;;
21505;SDS011;10914;48.886;9.394;2023-03-09T04:22:18;23.00;;;21.90;;
21505;SDS011;10914;48.886;9.394;2023-03-09T04:24:43;23.23;;;22.00;;
21505;SDS011;10914;48.886;9.394;2023-03-09T04:27:08;22.95;;;21.65;;
21505;SDS011;10914;48.886;9.394;2023-03-09T04:29:33;22.90;;;21.67;;
21505;SDS011;10914;48.886;9.394;2023-03-09T04:31:58;23.77;;;22.45;;
21505;SDS011;10914;48.886;9.394;2023-03-09T04:34:24;23.73;;;22.33;;
21505;SDS011;10914;48.886;9.394;2023-03-09T04:36:49;23.25;;;21.88;;
21505;SDS011;10914;48.886;9.394;2023-03-09T04:39:14;23.77;;;22.43;;
21505;SDS011;10914;48.886;9.394;2023-03-09T04:41:39;24.25;;;22.83;;
21505;SDS011;10914;48.886;9.394;2023-03-09T04:44:05;25.45;;;23.77;;
21505;SDS011;10914;48.886;9.394;2023-03-09T04:46:30;24.38;;;22.80;;
21505;SDS011;10914;48.886;9.394;2023-03-09T04:48:55;23.27;;;21.80;;
21505;SDS011;10914;48.886;9.394;2023-03-09T04:51:20;24.55;;;22.73;;
21505;SDS011;10914;48.886;9.394;2023-03-09T04:53:45;25.25;;;23.70;;
21505;SDS011;10914;48.886;9.394;2023-03-09T04:56:11;23.90;;;22.10;;
21505;SDS011;10914;48.886;9.394;2023-03-09T04:58:36;24.95;;;22.95;;
21505;SDS011;10914;48.886;9.394;2023-03-09T05:01:01;27.35;;;25.67;;
21505;SDS011;10914;48.886;9.394;2023-03-09T05:03:27;25.88;;;24.02;;
21505;SDS011;10914;48.886;9.394;2023-03-09T05:05:52;25.70;;;24.00;;
21505;SDS011;10914;48.886;9.394;2023-03-09T05:08:17;26.15;;;24.40;;
21505;SDS011;10914;48.886;9.394;2023-03-09T05:10:43;24.58;;;22.92;;
21505;SDS011;10914;48.886;9.394;2023-03-09T05:13:08;24.13;;;22.70;;
21505;SDS011;10914;48.886;9.394;2023-03-09T05:15:33;25.00;;;23.50;;
21505;SDS011;10914;48.886;9.394;2023-03-09T05:17:58;25.13;;;23.42;;
21505;SDS011;10914;48.886;9.394;2023-03-09T05:20:23;25.55;;;23.95;;
21505;SDS011;10914;48.886;9.394;2023-03-09T05:22:49;31.77;;;29.98;;
21505;SDS011;10914;48.886;9.394;2023-03-09T05:25:14;27.53;;;25.73;;
21505;SDS011;10914;48.886;9.394;2023-03-09T05:27:39;27.48;;;25.60;;
21505;SDS011;10914;48.886;9.394;2023-03-09T05:30:04;26.38;;;24.42;;
21505;SDS011;10914;48.886;9.394;2023-03-09T05:32:30;26.70;;;25.05;;
21505;SDS011;10914;48.886;9.394;2023-03-09T05:34:55;24.10;;;22.60;;
21505;SDS011;10914;48.886;9.394;2023-03-09T05:37:20;25.73;;;23.63;;
21505;SDS011;10914;48.886;9.394;2023-03-09T05:39:45;24.35;;;22.85;;
21505;SDS011;10914;48.886;9.394;2023-03-09T05:42:11;24.27;;;22.77;;
21505;SDS011;10914;48.886;9.394;2023-03-09T05:44:36;24.05;;;22.55;;
21505;SDS011;10914;48.886;9.394;2023-03-09T05:47:01;25.13;;;23.48;;
21505;SDS011;10914;48.886;9.394;2023-03-09T05:49:26;26.38;;;24.77;;
21505;SDS011;10914;48.886;9.394;2023-03-09T05:51:53;26.15;;;24.35;;
21505;SDS011;10914;48.886;9.394;2023-03-09T05:54:18;29.63;;;27.88;;
21505;SDS011;10914;48.886;9.394;2023-03-09T05:56:43;24.50;;;23.10;;
21505;SDS011;10914;48.886;9.394;2023-03-09T05:59:08;25.25;;;23.27;;
21505;SDS011;10914;48.886;9.394;2023-03-09T06:01:33;24.33;;;22.93;;
21505;SDS011;10914;48.886;9.394;2023-03-09T06:03:59;25.48;;;23.73;;
21505;SDS011;10914;48.886;9.394;2023-03-09T06:06:24;25.40;;;23.80;;
21505;SDS011;10914;48.886;9.394;2023-03-09T06:08:49;24.43;;;22.83;;
21505;SDS011;10914;48.886;9.394;2023-03-09T06:11:15;25.95;;;24.33;;
21505;SDS011;10914;48.886;9.394;2023-03-09T06:13:40;27.08;;;25.15;;
21505;SDS011;10914;48.886;9.394;2023-03-09T06:16:06;26.17;;;24.43;;
21505;SDS011;10914;48.886;9.394;2023-03-09T06:18:32;25.30;;;23.67;;
21505;SDS011;10914;48.886;9.394;2023-03-09T06:21:00;25.60;;;23.90;;
21505;SDS011;10914;48.886;9.394;2023-03-09T06:23:26;25.60;;;24.13;;
21505;SDS011;10914;48.886;9.394;2023-03-09T06:25:51;26.65;;;24.90;;
21505;SDS011;10914;48.886;9.394;2023-03-09T06:28:17;26.15;;;24.60;;
21505;SDS011;10914;48.886;9.394;2023-03-09T06:30:42;26.33;;;24.83;;
21505;SDS011;10914;48.886;9.394;2023-03-09T06:33:08;26.95;;;25.13;;
21505;SDS011;10914;48.886;9.394;2023-03-09T06:35:33;26.80;;;25.00;;
21505;SDS011;10914;48.886;9.394;2023-03-09T06:37:59;26.90;;;24.88;;
21505;SDS011;10914;48.886;9.394;2023-03-09T06:40:26;25.42;;;23.83;;
21505;SDS011;10914;48.886;9.394;2023-03-09T06:42:52;27.45;;;25.58;;
21505;SDS011;10914;48.886;9.394;2023-03-09T06:45:17;25.60;;;24.20;;
21505;SDS011;10914;48.886;9.394;2023-03-09T06:47:42;25.65;;;24.00;;
21505;SDS011;10914;48.886;9.394;2023-03-09T06:50:07;25.50;;;23.73;;
21505;SDS011;10914;48.886;9.394;2023-03-09T06:52:33;26.92;;;24.92;;
21505;SDS011;10914;48.886;9.394;2023-03-09T06:54:58;25.27;;;23.67;;
21505;SDS011;10914;48.886;9.394;2023-03-09T06:57:23;25.52;;;23.55;;
21505;SDS011;10914;48.886;9.394;2023-03-09T06:59:48;24.83;;;23.30;;
21505;SDS011;10914;48.886;9.394;2023-03-09T07:02:14;24.73;;;23.08;;
21505;SDS011;10914;48.886;9.394;2023-03-09T07:04:39;25.58;;;23.70;;
21505;SDS011;10914;48.886;9.394;2023-03-09T07:07:05;24.95;;;23.25;;
21505;SDS011;10914;48.886;9.394;2023-03-09T07:09:30;25.50;;;23.67;;
21505;SDS011;10914;48.886;9.394;2023-03-09T07:11:57;25.58;;;23.90;;
21505;SDS011;10914;48.886;9.394;2023-03-09T07:14:22;23.63;;;22.15;;
21505;SDS011;10914;48.886;9.394;2023-03-09T07:16:51;23.70;;;22.15;;
21505;SDS011;10914;48.886;9.394;2023-03-09T07:19:16;24.80;;;22.92;;
21505;SDS011;10914;48.886;9.394;2023-03-09T07:21:42;27.17;;;25.33;;
21505;SDS011;10914;48.886;9.394;2023-03-09T07:24:07;26.50;;;24.70;;
21505;SDS011;10914;48.886;9.394;2023-03-09T07:26:32;28.83;;;26.87;;
21505;SDS011;10914;48.886;9.394;2023-03-09T07:28:57;28.77;;;26.77;;
21505;SDS011;10914;48.886;9.394;2023-03-09T07:31:23;28.17;;;26.30;;
21505;SDS011;10914;48.886;9.394;2023-03-09T07:33:49;29.85;;;27.77;;
21505;SDS011;10914;48.886;9.394;2023-03-09T07:36:14;31.98;;;30.15;;
21505;SDS011;10914;48.886;9.394;2023-03-09T07:38:39;31.50;;;29.27;;
21505;SDS011;10914;48.886;9.394;2023-03-09T07:41:04;32.08;;;29.88;;
21505;SDS011;10914;48.886;9.394;2023-03-09T07:43:31;32.03;;;29.77;;
21505;SDS011;10914;48.886;9.394;2023-03-09T07:45:56;32.17;;;30.10;;
21505;SDS011;10914;48.886;9.394;2023-03-09T07:48:22;31.38;;;29.48;;
21505;SDS011;10914;48.886;9.394;2023-03-09T07:50:52;29.85;;;27.83;;
21505;SDS011;10914;48.886;9.394;2023-03-09T07:53:20;30.48;;;28.42;;
21505;SDS011;10914;48.886;9.394;2023-03-09T07:55:53;28.87;;;26.80;;
21505;SDS011;10914;48.886;9.394;2023-03-09T07:58:18;30.67;;;28.27;;
21505;SDS011;10914;48.886;9.394;2023-03-09T08:00:43;27.35;;;25.55;;
21505;SDS011;10914;48.886;9.394;2023-03-09T08:03:09;26.88;;;24.50;;
21505;SDS011;10914;48.886;9.394;2023-03-09T08:05:34;23.70;;;22.10;;
21505;SDS011;10914;48.886;9.394;2023-03-09T08:07:59;24.45;;;22.63;;
21505;SDS011;10914;48.886;9.394;2023-03-09T08:10:24;27.03;;;24.93;;
21505;SDS011;10914;48.886;9.394;2023-03-09T08:12:49;25.15;;;23.42;;
21505;SDS011;10914;48.886;9.394;2023-03-09T08:15:15;25.67;;;23.83;;
21505;SDS011;10914;48.886;9.394;2023-03-09T08:17:43;25.45;;;23.67;;
21505;SDS011;10914;48.886;9.394;2023-03-09T08:20:09;28.10;;;26.05;;
21505;SDS011;10914;48.886;9.394;2023-03-09T08:22:35;24.48;;;22.73;;
21505;SDS011;10914;48.886;9.394;2023-03-09T08:25:00;22.95;;;21.45;;
21505;SDS011;10914;48.886;9.394;2023-03-09T08:27:26;23.13;;;21.43;;
21505;SDS011;10914;48.886;9.394;2023-03-09T08:29:51;22.95;;;21.35;;
21505;SDS011;10914;48.886;9.394;2023-03-09T08:32:16;23.33;;;21.83;;
21505;SDS011;10914;48.886;9.394;2023-03-09T08:34:41;22.73;;;21.33;;
21505;SDS011;10914;48.886;9.394;2023-03-09T08:37:07;23.70;;;22.00;;
21505;SDS011;10914;48.886;9.394;2023-03-09T08:39:32;22.73;;;21.52;;
21505;SDS011;10914;48.886;9.394;2023-03-09T08:41:57;26.35;;;24.77;;
21505;SDS011;10914;48.886;9.394;2023-03-09T08:44:23;23.10;;;21.42;;
21505;SDS011;10914;48.886;9.394;2023-03-09T08:46:48;23.75;;;22.15;;
21505;SDS011;10914;48.886;9.394;2023-03-09T08:49:13;23.05;;;21.52;;
21505;SDS011;10914;48.886;9.394;2023-03-09T08:51:38;22.77;;;21.37;;
21505;SDS011;10914;48.886;9.394;2023-03-09T08:54:04;22.90;;;21.50;;
21505;SDS011;10914;48.886;9.394;2023-03-09T08:56:29;22.65;;;21.20;;
21505;SDS011;10914;48.886;9.394;2023-03-09T08:58:54;22.55;;;21.15;;
21505;SDS011;10914;48.886;9.394;2023-03-09T09:01:19;22.05;;;20.77;;
21505;SDS011;10914;48.886;9.394;2023-03-09T09:03:44;22.67;;;21.20;;
21505;SDS011;10914;48.886;9.394;2023-03-09T09:06:11;23.48;;;21.98;;
21505;SDS011;10914;48.886;9.394;2023-03-09T09:08:37;24.70;;;23.25;;
21505;SDS011;10914;48.886;9.394;2023-03-09T09:11:10;24.70;;;23.20;;
21505;SDS011;10914;48.886;9.394;2023-03-09T09:13:36;26.05;;;24.13;;
21505;SDS011;10914;48.886;9.394;2023-03-09T09:16:05;24.33;;;23.10;;
21505;SDS011;10914;48.886;9.394;2023-03-09T09:18:31;23.67;;;22.38;;
21505;SDS011;10914;48.886;9.394;2023-03-09T09:20:56;26.23;;;24.50;;
21505;SDS011;10914;48.886;9.394;2023-03-09T09:23:22;24.27;;;22.55;;
21505;SDS011;10914;48.886;9.394;2023-03-09T09:25:53;23.60;;;22.30;;
21505;SDS011;10914;48.886;9.394;2023-03-09T09:28:18;23.00;;;21.77;;
21505;SDS011;10914;48.886;9.394;2023-03-09T09:30:43;22.63;;;21.23;;
21505;SDS011;10914;48.886;9.394;2023-03-09T09:33:09;22.40;;;21.13;;
21505;SDS011;10914;48.886;9.394;2023-03-09T09:35:36;23.08;;;21.88;;
21505;SDS011;10914;48.886;9.394;2023-03-09T09:38:01;23.10;;;21.70;;
21505;SDS011;10914;48.886;9.394;2023-03-09T09:40:27;23.02;;;21.73;;
21505;SDS011;10914;48.886;9.394;2023-03-09T09:42:52;21.75;;;20.60;;
21505;SDS011;10914;48.886;9.394;2023-03-09T09:45:25;22.48;;;21.23;;
21505;SDS011;10914;48.886;9.394;2023-03-09T09:47:51;21.80;;;20.55;;
21505;SDS011;10914;48.886;9.394;2023-03-09T09:50:17;21.70;;;20.60;;
21505;SDS011;10914;48.886;9.394;2023-03-09T09:52:46;21.48;;;20.35;;
21505;SDS011;10914;48.886;9.394;2023-03-09T09:57:45;22.00;;;20.75;;
21505;SDS011;10914;48.886;9.394;2023-03-09T10:00:15;21.27;;;20.08;;
21505;SDS011;10914;48.886;9.394;2023-03-09T10:02:56;21.58;;;20.45;;
21505;SDS011;10914;48.886;9.394;2023-03-09T10:07:53;22.50;;;21.25;;
21505;SDS011;10914;48.886;9.394;2023-03-09T10:10:21;22.70;;;21.42;;
21505;SDS011;10914;48.886;9.394;2023-03-09T10:12:46;21.80;;;20.67;;
21505;SDS011;10914;48.886;9.394;2023-03-09T10:15:22;22.60;;;21.20;;
21505;SDS011;10914;48.886;9.394;2023-03-09T10:17:57;21.98;;;20.60;;
21505;SDS011;10914;48.886;9.394;2023-03-09T10:20:25;22.63;;;21.08;;
21505;SDS011;10914;48.886;9.394;2023-03-09T10:22:52;21.70;;;20.50;;
21505;SDS011;10914;48.886;9.394;2023-03-09T10:25:19;21.15;;;20.08;;
21505;SDS011;10914;48.886;9.394;2023-03-09T10:32:46;21.77;;;20.63;;
21505;SDS011;10914;48.886;9.394;2023-03-09T10:37:59;23.05;;;21.75;;
21505;SDS011;10914;48.886;9.394;2023-03-09T10:40:25;21.83;;;20.60;;
21505;SDS011;10914;48.886;9.394;2023-03-09T10:42:52;21.73;;;20.63;;
21505;SDS011;10914;48.886;9.394;2023-03-09T10:45:32;22.80;;;21.33;;
21505;SDS011;10914;48.886;9.394;2023-03-09T10:47:59;25.15;;;23.85;;
21505;SDS011;10914;48.886;9.394;2023-03-09T10:50:35;26.45;;;25.08;;
21505;SDS011;10914;48.886;9.394;2023-03-09T10:55:47;22.83;;;21.55;;
21505;SDS011;10914;48.886;9.394;2023-03-09T10:58:14;22.15;;;20.70;;
21505;SDS011;10914;48.886;9.394;2023-03-09T11:03:25;22.88;;;21.50;;
21505;SDS011;10914;48.886;9.394;2023-03-09T11:05:50;21.52;;;20.42;;
21505;SDS011;10914;48.886;9.394;2023-03-09T11:08:23;21.80;;;20.52;;
21505;SDS011;10914;48.886;9.394;2023-03-09T11:10:52;21.73;;;20.52;;
21505;SDS011;10914;48.886;9.394;2023-03-09T11:13:24;21.52;;;20.33;;
21505;SDS011;10914;48.886;9.394;2023-03-09T11:16:03;20.98;;;19.77;;
21505;SDS011;10914;48.886;9.394;2023-03-09T11:18:29;20.55;;;19.45;;
21505;SDS011;10914;48.886;9.394;2023-03-09T11:20:55;21.10;;;19.80;;
21505;SDS011;10914;48.886;9.394;2023-03-09T11:23:53;23.60;;;22.40;;
21505;SDS011;10914;48.886;9.394;2023-03-09T11:29:20;22.13;;;20.83;;
21505;SDS011;10914;48.886;9.394;2023-03-09T11:31:49;19.70;;;18.50;;
21505;SDS011;10914;48.886;9.394;2023-03-09T11:34:15;19.73;;;18.73;;
21505;SDS011;10914;48.886;9.394;2023-03-09T11:36:44;18.95;;;17.83;;
21505;SDS011;10914;48.886;9.394;2023-03-09T11:39:24;19.75;;;18.55;;
21505;SDS011;10914;48.886;9.394;2023-03-09T11:41:50;19.40;;;18.40;;
21505;SDS011;10914;48.886;9.394;2023-03-09T11:46:44;20.85;;;19.58;;
21505;SDS011;10914;48.886;9.394;2023-03-09T11:49:16;20.50;;;19.38;;
21505;SDS011;10914;48.886;9.394;2023-03-09T11:51:45;20.38;;;19.08;;
21505;SDS011;10914;48.886;9.394;2023-03-09T11:56:46;20.60;;;19.40;;
21505;SDS011;10914;48.886;9.394;2023-03-09T12:01:45;21.95;;;20.85;;
21505;SDS011;10914;48.886;9.394;2023-03-09T12:04:13;21.42;;;20.13;;
21505;SDS011;10914;48.886;9.394;2023-03-09T12:09:27;19.65;;;18.55;;
21505;SDS011;10914;48.886;9.394;2023-03-09T12:11:57;20.60;;;19.48;;
21505;SDS011;10914;48.886;9.394;2023-03-09T12:16:52;22.20;;;20.98;;
21505;SDS011;10914;48.886;9.394;2023-03-09T12:19:19;21.05;;;19.65;;
21505;SDS011;10914;48.886;9.394;2023-03-09T12:21:49;18.98;;;17.95;;
21505;SDS011;10914;48.886;9.394;2023-03-09T12:27:23;19.33;;;18.10;;
21505;SDS011;10914;48.886;9.394;2023-03-09T12:29:43;19.73;;;18.50;;
21505;SDS011;10914;48.886;9.394;2023-03-09T12:34:42;19.65;;;18.70;;
21505;SDS011;10914;48.886;9.394;2023-03-09T12:42:49;20.35;;;19.15;;
21505;SDS011;10914;48.886;9.394;2023-03-09T13:05:56;20.13;;;19.02;;
21505;SDS011;10914;48.886;9.394;2023-03-09T13:08:29;19.88;;;18.67;;
21505;SDS011;10914;48.886;9.394;2023-03-09T13:13:41;20.40;;;19.30;;
21505;SDS011;10914;48.886;9.394;2023-03-09T13:18:54;24.90;;;23.40;;
21505;SDS011;10914;48.886;9.394;2023-03-09T13:21:42;27.75;;;26.05;;
21505;SDS011;10914;48.886;9.394;2023-03-09T13:24:15;27.40;;;25.92;;
21505;SDS011;10914;48.886;9.394;2023-03-09T13:26:45;27.38;;;25.85;;
21505;SDS011;10914;48.886;9.394;2023-03-09T13:29:14;24.02;;;22.83;;
21505;SDS011;10914;48.886;9.394;2023-03-09T13:31:40;23.00;;;21.70;;
21505;SDS011;10914;48.886;9.394;2023-03-09T13:34:09;21.70;;;20.23;;
21505;SDS011;10914;48.886;9.394;2023-03-09T13:36:35;21.40;;;20.15;;
21505;SDS011;10914;48.886;9.394;2023-03-09T13:39:02;21.60;;;20.20;;
21505;SDS011;10914;48.886;9.394;2023-03-09T13:41:31;20.65;;;19.42;;
21505;SDS011;10914;48.886;9.394;2023-03-09T13:43:56;21.42;;;20.15;;
21505;SDS011;10914;48.886;9.394;2023-03-09T13:46:24;20.23;;;19.02;;
21505;SDS011;10914;48.886;9.394;2023-03-09T13:48:52;20.15;;;18.95;;
21505;SDS011;10914;48.886;9.394;2023-03-09T13:51:22;19.95;;;18.75;;
21505;SDS011;10914;48.886;9.394;2023-03-09T13:53:47;20.73;;;19.42;;
21505;SDS011;10914;48.886;9.394;2023-03-09T13:56:13;21.08;;;19.70;;
21505;SDS011;10914;48.886;9.394;2023-03-09T13:58:39;20.38;;;19.25;;
21505;SDS011;10914;48.886;9.394;2023-03-09T14:01:06;20.65;;;19.35;;
21505;SDS011;10914;48.886;9.394;2023-03-09T14:03:32;20.17;;;19.02;;
21505;SDS011;10914;48.886;9.394;2023-03-09T14:06:01;21.15;;;19.70;;
21505;SDS011;10914;48.886;9.394;2023-03-09T14:08:30;21.17;;;19.88;;
21505;SDS011;10914;48.886;9.394;2023-03-09T14:10:56;20.58;;;19.38;;
21505;SDS011;10914;48.886;9.394;2023-03-09T14:13:28;20.33;;;19.10;;
21505;SDS011;10914;48.886;9.394;2023-03-09T14:16:00;21.58;;;20.23;;
21505;SDS011;10914;48.886;9.394;2023-03-09T14:18:35;22.05;;;20.45;;
21505;SDS011;10914;48.886;9.394;2023-03-09T14:21:01;21.08;;;19.73;;
21505;SDS011;10914;48.886;9.394;2023-03-09T14:23:39;21.90;;;20.40;;
21505;SDS011;10914;48.886;9.394;2023-03-09T14:26:05;21.00;;;19.88;;
21505;SDS011;10914;48.886;9.394;2023-03-09T14:28:32;20.90;;;19.40;;
21505;SDS011;10914;48.886;9.394;2023-03-09T14:33:56;21.70;;;20.40;;
21505;SDS011;10914;48.886;9.394;2023-03-09T14:36:21;20.63;;;19.42;;
21505;SDS011;10914;48.886;9.394;2023-03-09T14:38:59;21.65;;;20.35;;
21505;SDS011;10914;48.886;9.394;2023-03-09T14:41:26;24.73;;;23.20;;
21505;SDS011;10914;48.886;9.394;2023-03-09T14:43:52;21.00;;;19.70;;
21505;SDS011;10914;48.886;9.394;2023-03-09T14:46:21;19.73;;;18.60;;
21505;SDS011;10914;48.886;9.394;2023-03-09T14:48:48;19.83;;;18.63;;
21505;SDS011;10914;48.886;9.394;2023-03-09T14:51:15;19.30;;;18.30;;
21505;SDS011;10914;48.886;9.394;2023-03-09T14:53:50;19.55;;;18.60;;
21505;SDS011;10914;48.886;9.394;2023-03-09T14:56:16;20.02;;;18.90;;
21505;SDS011;10914;48.886;9.394;2023-03-09T14:58:41;19.93;;;18.77;;
21505;SDS011;10914;48.886;9.394;2023-03-09T15:01:07;22.45;;;21.13;;
21505;SDS011;10914;48.886;9.394;2023-03-09T15:03:32;22.95;;;21.55;;
21505;SDS011;10914;48.886;9.394;2023-03-09T15:05:57;23.88;;;22.55;;
21505;SDS011;10914;48.886;9.394;2023-03-09T15:08:22;23.40;;;22.07;;
21505;SDS011;10914;48.886;9.394;2023-03-09T15:10:48;20.13;;;19.13;;
21505;SDS011;10914;48.886;9.394;2023-03-09T15:13:13;20.50;;;19.40;;
21505;SDS011;10914;48.886;9.394;2023-03-09T15:15:38;19.40;;;18.40;;
21505;SDS011;10914;48.886;9.394;2023-03-09T15:18:04;19.83;;;18.80;;
21505;SDS011;10914;48.886;9.394;2023-03-09T15:20:30;20.90;;;19.73;;
21505;SDS011;10914;48.886;9.394;2023-03-09T15:22:55;20.85;;;19.58;;
21505;SDS011;10914;48.886;9.394;2023-03-09T15:25:20;21.27;;;20.08;;
21505;SDS011;10914;48.886;9.394;2023-03-09T15:27:45;23.63;;;22.17;;
21505;SDS011;10914;48.886;9.394;2023-03-09T15:30:17;23.00;;;21.80;;
21505;SDS011;10914;48.886;9.394;2023-03-09T15:32:43;23.70;;;22.27;;
21505;SDS011;10914;48.886;9.394;2023-03-09T15:35:10;26.05;;;24.55;;
21505;SDS011;10914;48.886;9.394;2023-03-09T15:37:36;26.40;;;24.77;;